sensor_id;sensor_type;location;lat;lon;timestamp;temperature;humidity
21592;DHT22;10958;50.892;3.992;2022-12-20T00:01:22;11.10;99.90
21592;DHT22;10958;50.892;3.992;2022-12-20T00:03:52;11.10;99.90
21592;DHT22;10958;50.892;3.992;2022-12-20T00:06:19;11.00;99.90
21592;DHT22;10958;50.892;3.992;2022-12-20T00:08:46;11.00;99.90
21592;DHT22;10958;50.892;3.992;2022-12-20T00:11:12;11.00;99.90
21592;DHT22;10958;50.892;3.992;2022-12-20T00:13:40;11.00;99.90
21592;DHT22;10958;50.892;3.992;2022-12-20T00:16:10;11.00;99.90
21592;DHT22;10958;50.892;3.992;2022-12-20T00:18:38;10.80;99.90
21592;DHT22;10958;50.892;3.992;2022-12-20T00:21:06;10.80;99.90
21592;DHT22;10958;50.892;3.992;2022-12-20T00:23:33;10.80;99.90
21592;DHT22;10958;50.892;3.992;2022-12-20T00:26:03;10.70;99.90
21592;DHT22;10958;50.892;3.992;2022-12-20T00:28:30;10.60;99.90
21592;DHT22;10958;50.892;3.992;2022-12-20T00:30:56;10.60;99.90
21592;DHT22;10958;50.892;3.992;2022-12-20T00:33:25;10.50;99.90
21592;DHT22;10958;50.892;3.992;2022-12-20T00:35:51;10.60;99.90
21592;DHT22;10958;50.892;3.992;2022-12-20T00:38:16;10.50;99.90
21592;DHT22;10958;50.892;3.992;2022-12-20T00:40:45;10.50;99.90
21592;DHT22;10958;50.892;3.992;2022-12-20T00:43:11;10.50;99.90
21592;DHT22;10958;50.892;3.992;2022-12-20T00:45:37;10.50;99.90
21592;DHT22;10958;50.892;3.992;2022-12-20T00:48:03;10.30;99.90
21592;DHT22;10958;50.892;3.992;2022-12-20T00:50:29;10.30;99.90
21592;DHT22;10958;50.892;3.992;2022-12-20T00:52:55;10.30;99.90
21592;DHT22;10958;50.892;3.992;2022-12-20T00:55:20;10.30;99.90
21592;DHT22;10958;50.892;3.992;2022-12-20T00:57:46;10.30;99.90
21592;DHT22;10958;50.892;3.992;2022-12-20T01:00:12;10.40;99.90
21592;DHT22;10958;50.892;3.992;2022-12-20T01:02:38;10.40;99.90
21592;DHT22;10958;50.892;3.992;2022-12-20T01:05:04;10.40;99.90
21592;DHT22;10958;50.892;3.992;2022-12-20T01:07:31;10.30;99.90
21592;DHT22;10958;50.892;3.992;2022-12-20T01:09:57;10.30;99.90
21592;DHT22;10958;50.892;3.992;2022-12-20T01:12:23;10.30;99.90
21592;DHT22;10958;50.892;3.992;2022-12-20T01:14:49;10.30;99.90
21592;DHT22;10958;50.892;3.992;2022-12-20T01:17:15;10.30;99.90
21592;DHT22;10958;50.892;3.992;2022-12-20T01:19:40;10.30;99.90
21592;DHT22;10958;50.892;3.992;2022-12-20T01:22:06;10.30;99.90
21592;DHT22;10958;50.892;3.992;2022-12-20T01:24:32;10.20;99.90
21592;DHT22;10958;50.892;3.992;2022-12-20T01:26:58;10.30;99.90
21592;DHT22;10958;50.892;3.992;2022-12-20T01:29:24;10.30;99.90
21592;DHT22;10958;50.892;3.992;2022-12-20T01:31:50;10.40;99.90
21592;DHT22;10958;50.892;3.992;2022-12-20T01:34:20;10.40;99.90
21592;DHT22;10958;50.892;3.992;2022-12-20T01:36:45;10.30;99.90
21592;DHT22;10958;50.892;3.992;2022-12-20T01:39:15;10.40;99.90
21592;DHT22;10958;50.892;3.992;2022-12-20T01:41:43;10.50;99.90
21592;DHT22;10958;50.892;3.992;2022-12-20T01:46:45;10.50;99.90
21592;DHT22;10958;50.892;3.992;2022-12-20T01:54:33;10.50;99.90
21592;DHT22;10958;50.892;3.992;2022-12-20T01:57:03;10.40;99.90
21592;DHT22;10958;50.892;3.992;2022-12-20T01:59:30;10.40;99.90
21592;DHT22;10958;50.892;3.992;2022-12-20T02:02:00;10.50;99.90
21592;DHT22;10958;50.892;3.992;2022-12-20T02:04:27;10.50;99.90
21592;DHT22;10958;50.892;3.992;2022-12-20T02:06:53;10.40;99.90
21592;DHT22;10958;50.892;3.992;2022-12-20T02:09:22;10.40;99.90
21592;DHT22;10958;50.892;3.992;2022-12-20T02:14:31;10.40;99.90
21592;DHT22;10958;50.892;3.992;2022-12-20T02:17:13;10.40;99.90
21592;DHT22;10958;50.892;3.992;2022-12-20T02:30:44;10.60;99.90
21592;DHT22;10958;50.892;3.992;2022-12-20T02:33:13;10.60;99.90
21592;DHT22;10958;50.892;3.992;2022-12-20T02:35:40;10.50;99.90
21592;DHT22;10958;50.892;3.992;2022-12-20T02:43:52;10.70;99.90
21592;DHT22;10958;50.892;3.992;2022-12-20T02:46:51;10.70;99.90
21592;DHT22;10958;50.892;3.992;2022-12-20T02:49:20;10.70;99.90
21592;DHT22;10958;50.892;3.992;2022-12-20T02:51:50;10.70;99.90
21592;DHT22;10958;50.892;3.992;2022-12-20T02:54:18;10.80;99.90
21592;DHT22;10958;50.892;3.992;2022-12-20T02:57:05;10.80;99.90
21592;DHT22;10958;50.892;3.992;2022-12-20T03:00:39;10.70;99.90
21592;DHT22;10958;50.892;3.992;2022-12-20T03:02:34;10.80;99.90
21592;DHT22;10958;50.892;3.992;2022-12-20T03:05:23;10.80;99.90
21592;DHT22;10958;50.892;3.992;2022-12-20T03:07:50;10.90;99.90
21592;DHT22;10958;50.892;3.992;2022-12-20T03:10:17;10.90;99.90
21592;DHT22;10958;50.892;3.992;2022-12-20T03:12:42;10.90;99.90
21592;DHT22;10958;50.892;3.992;2022-12-20T03:15:09;11.00;99.90
21592;DHT22;10958;50.892;3.992;2022-12-20T03:17:35;11.00;99.90
21592;DHT22;10958;50.892;3.992;2022-12-20T03:20:04;11.00;99.90
21592;DHT22;10958;50.892;3.992;2022-12-20T03:22:35;11.00;99.90
21592;DHT22;10958;50.892;3.992;2022-12-20T03:25:01;11.00;99.90
21592;DHT22;10958;50.892;3.992;2022-12-20T03:27:27;10.90;99.90
21592;DHT22;10958;50.892;3.992;2022-12-20T03:30:01;11.00;99.90
21592;DHT22;10958;50.892;3.992;2022-12-20T03:32:30;10.90;99.90
21592;DHT22;10958;50.892;3.992;2022-12-20T03:34:58;11.00;99.90
21592;DHT22;10958;50.892;3.992;2022-12-20T03:37:24;11.00;99.90
21592;DHT22;10958;50.892;3.992;2022-12-20T03:39:50;11.00;99.90
21592;DHT22;10958;50.892;3.992;2022-12-20T03:42:15;11.00;99.90
21592;DHT22;10958;50.892;3.992;2022-12-20T03:44:43;11.00;99.90
21592;DHT22;10958;50.892;3.992;2022-12-20T03:47:09;11.00;99.90
21592;DHT22;10958;50.892;3.992;2022-12-20T03:49:34;11.00;99.90
21592;DHT22;10958;50.892;3.992;2022-12-20T03:52:00;11.00;99.90
21592;DHT22;10958;50.892;3.992;2022-12-20T03:54:26;11.00;99.90
21592;DHT22;10958;50.892;3.992;2022-12-20T03:56:52;10.90;99.90
21592;DHT22;10958;50.892;3.992;2022-12-20T03:59:17;10.90;99.90
21592;DHT22;10958;50.892;3.992;2022-12-20T04:01:44;11.00;99.90
21592;DHT22;10958;50.892;3.992;2022-12-20T04:04:12;11.00;99.90
21592;DHT22;10958;50.892;3.992;2022-12-20T04:06:37;11.00;99.90
21592;DHT22;10958;50.892;3.992;2022-12-20T04:09:03;11.00;99.90
21592;DHT22;10958;50.892;3.992;2022-12-20T04:11:29;11.00;99.90
21592;DHT22;10958;50.892;3.992;2022-12-20T04:13:56;10.90;99.90
21592;DHT22;10958;50.892;3.992;2022-12-20T04:16:24;11.00;99.90
21592;DHT22;10958;50.892;3.992;2022-12-20T04:18:53;11.00;99.90
21592;DHT22;10958;50.892;3.992;2022-12-20T04:21:31;11.00;99.90
21592;DHT22;10958;50.892;3.992;2022-12-20T04:23:58;11.10;99.90
21592;DHT22;10958;50.892;3.992;2022-12-20T04:26:24;11.00;99.90
21592;DHT22;10958;50.892;3.992;2022-12-20T04:28:50;11.00;99.90
21592;DHT22;10958;50.892;3.992;2022-12-20T04:31:18;11.10;99.90
21592;DHT22;10958;50.892;3.992;2022-12-20T04:33:45;11.10;99.90
21592;DHT22;10958;50.892;3.992;2022-12-20T04:36:11;11.10;99.90
21592;DHT22;10958;50.892;3.992;2022-12-20T04:38:40;11.00;99.90
21592;DHT22;10958;50.892;3.992;2022-12-20T04:41:06;11.10;99.90
21592;DHT22;10958;50.892;3.992;2022-12-20T04:43:32;11.00;99.90
21592;DHT22;10958;50.892;3.992;2022-12-20T04:46:00;11.00;99.90
21592;DHT22;10958;50.892;3.992;2022-12-20T04:48:43;11.00;99.90
21592;DHT22;10958;50.892;3.992;2022-12-20T04:51:09;11.00;99.90
21592;DHT22;10958;50.892;3.992;2022-12-20T04:53:34;11.00;99.90
21592;DHT22;10958;50.892;3.992;2022-12-20T04:56:22;10.90;99.90
21592;DHT22;10958;50.892;3.992;2022-12-20T04:58:50;10.90;99.90
21592;DHT22;10958;50.892;3.992;2022-12-20T05:01:16;10.80;99.90
21592;DHT22;10958;50.892;3.992;2022-12-20T05:03:43;10.80;99.90
21592;DHT22;10958;50.892;3.992;2022-12-20T05:06:09;10.70;99.90
21592;DHT22;10958;50.892;3.992;2022-12-20T05:08:36;10.60;99.90
21592;DHT22;10958;50.892;3.992;2022-12-20T05:11:03;10.70;99.90
21592;DHT22;10958;50.892;3.992;2022-12-20T05:13:29;10.60;99.90
21592;DHT22;10958;50.892;3.992;2022-12-20T05:15:55;10.70;99.90
21592;DHT22;10958;50.892;3.992;2022-12-20T05:18:22;10.70;99.90
21592;DHT22;10958;50.892;3.992;2022-12-20T05:20:49;10.80;99.90
21592;DHT22;10958;50.892;3.992;2022-12-20T05:23:34;10.80;99.90
21592;DHT22;10958;50.892;3.992;2022-12-20T05:26:19;10.70;99.90
21592;DHT22;10958;50.892;3.992;2022-12-20T05:28:45;10.70;99.90
21592;DHT22;10958;50.892;3.992;2022-12-20T05:31:10;10.70;99.90
21592;DHT22;10958;50.892;3.992;2022-12-20T05:33:36;10.70;99.90
21592;DHT22;10958;50.892;3.992;2022-12-20T05:36:02;10.70;99.90
21592;DHT22;10958;50.892;3.992;2022-12-20T05:38:28;10.70;99.90
21592;DHT22;10958;50.892;3.992;2022-12-20T05:40:54;10.70;99.90
21592;DHT22;10958;50.892;3.992;2022-12-20T05:43:20;10.80;99.90
21592;DHT22;10958;50.892;3.992;2022-12-20T05:45:47;10.80;99.90
21592;DHT22;10958;50.892;3.992;2022-12-20T05:48:15;10.90;99.90
21592;DHT22;10958;50.892;3.992;2022-12-20T05:50:42;10.80;99.90
21592;DHT22;10958;50.892;3.992;2022-12-20T05:53:12;10.80;99.90
21592;DHT22;10958;50.892;3.992;2022-12-20T05:55:44;10.80;99.90
21592;DHT22;10958;50.892;3.992;2022-12-20T05:58:12;10.90;99.90
21592;DHT22;10958;50.892;3.992;2022-12-20T06:00:42;10.90;99.90
21592;DHT22;10958;50.892;3.992;2022-12-20T06:03:10;10.90;99.90
21592;DHT22;10958;50.892;3.992;2022-12-20T06:05:37;10.90;99.90
21592;DHT22;10958;50.892;3.992;2022-12-20T06:08:04;10.90;99.90
21592;DHT22;10958;50.892;3.992;2022-12-20T06:10:33;10.90;99.90
21592;DHT22;10958;50.892;3.992;2022-12-20T06:13:02;11.00;99.90
21592;DHT22;10958;50.892;3.992;2022-12-20T06:15:29;11.00;99.90
21592;DHT22;10958;50.892;3.992;2022-12-20T06:17:56;11.00;99.90
21592;DHT22;10958;50.892;3.992;2022-12-20T06:20:22;11.10;99.90
21592;DHT22;10958;50.892;3.992;2022-12-20T06:22:48;11.10;99.90
21592;DHT22;10958;50.892;3.992;2022-12-20T06:25:14;11.10;99.90
21592;DHT22;10958;50.892;3.992;2022-12-20T06:27:41;11.00;99.90
21592;DHT22;10958;50.892;3.992;2022-12-20T06:30:11;11.00;99.90
21592;DHT22;10958;50.892;3.992;2022-12-20T06:32:39;11.00;99.90
21592;DHT22;10958;50.892;3.992;2022-12-20T06:35:05;11.10;99.90
21592;DHT22;10958;50.892;3.992;2022-12-20T06:37:36;11.00;99.90
21592;DHT22;10958;50.892;3.992;2022-12-20T06:40:08;11.00;99.90
21592;DHT22;10958;50.892;3.992;2022-12-20T06:42:34;11.00;99.90
21592;DHT22;10958;50.892;3.992;2022-12-20T06:45:03;11.10;99.90
21592;DHT22;10958;50.892;3.992;2022-12-20T06:47:30;11.20;99.90
21592;DHT22;10958;50.892;3.992;2022-12-20T06:49:57;11.10;99.90
21592;DHT22;10958;50.892;3.992;2022-12-20T06:52:24;11.20;99.90
21592;DHT22;10958;50.892;3.992;2022-12-20T06:54:49;11.10;99.90
21592;DHT22;10958;50.892;3.992;2022-12-20T06:57:18;11.20;99.90
21592;DHT22;10958;50.892;3.992;2022-12-20T06:59:44;11.20;99.90
21592;DHT22;10958;50.892;3.992;2022-12-20T07:02:13;11.20;99.90
21592;DHT22;10958;50.892;3.992;2022-12-20T07:04:38;11.20;99.90
21592;DHT22;10958;50.892;3.992;2022-12-20T07:07:04;11.20;99.90
21592;DHT22;10958;50.892;3.992;2022-12-20T07:09:30;11.20;99.90
21592;DHT22;10958;50.892;3.992;2022-12-20T07:11:57;11.20;99.90
21592;DHT22;10958;50.892;3.992;2022-12-20T07:14:25;11.20;99.90
21592;DHT22;10958;50.892;3.992;2022-12-20T07:16:53;11.10;99.90
21592;DHT22;10958;50.892;3.992;2022-12-20T07:19:21;11.00;99.90
21592;DHT22;10958;50.892;3.992;2022-12-20T07:21:48;11.10;99.90
21592;DHT22;10958;50.892;3.992;2022-12-20T07:24:14;11.10;99.90
21592;DHT22;10958;50.892;3.992;2022-12-20T07:26:43;11.00;99.90
21592;DHT22;10958;50.892;3.992;2022-12-20T07:29:08;11.00;99.90
21592;DHT22;10958;50.892;3.992;2022-12-20T07:31:34;11.10;99.90
21592;DHT22;10958;50.892;3.992;2022-12-20T07:34:02;11.00;99.90
21592;DHT22;10958;50.892;3.992;2022-12-20T07:36:30;11.00;99.90
21592;DHT22;10958;50.892;3.992;2022-12-20T07:38:57;10.90;99.90
21592;DHT22;10958;50.892;3.992;2022-12-20T07:41:22;10.90;99.90
21592;DHT22;10958;50.892;3.992;2022-12-20T07:43:50;10.80;99.90
21592;DHT22;10958;50.892;3.992;2022-12-20T07:46:18;10.80;99.90
21592;DHT22;10958;50.892;3.992;2022-12-20T07:48:44;10.80;99.90
21592;DHT22;10958;50.892;3.992;2022-12-20T07:51:22;10.90;99.90
21592;DHT22;10958;50.892;3.992;2022-12-20T07:53:55;10.80;99.90
21592;DHT22;10958;50.892;3.992;2022-12-20T07:56:22;10.70;99.90
21592;DHT22;10958;50.892;3.992;2022-12-20T07:58:49;10.70;99.90
21592;DHT22;10958;50.892;3.992;2022-12-20T08:01:17;10.60;99.90
21592;DHT22;10958;50.892;3.992;2022-12-20T08:03:50;10.60;99.90
21592;DHT22;10958;50.892;3.992;2022-12-20T08:06:18;10.60;99.90
21592;DHT22;10958;50.892;3.992;2022-12-20T08:08:48;10.70;99.90
21592;DHT22;10958;50.892;3.992;2022-12-20T08:11:17;10.70;99.90
21592;DHT22;10958;50.892;3.992;2022-12-20T08:17:18;10.80;99.90
21592;DHT22;10958;50.892;3.992;2022-12-20T08:20:07;10.80;99.90
21592;DHT22;10958;50.892;3.992;2022-12-20T08:25:55;10.80;99.90
21592;DHT22;10958;50.892;3.992;2022-12-20T08:28:30;10.80;99.90
21592;DHT22;10958;50.892;3.992;2022-12-20T08:31:04;10.70;99.90
21592;DHT22;10958;50.892;3.992;2022-12-20T08:36:49;10.80;99.90
21592;DHT22;10958;50.892;3.992;2022-12-20T08:39:36;10.70;99.90
21592;DHT22;10958;50.892;3.992;2022-12-20T08:48:36;10.70;99.90
21592;DHT22;10958;50.892;3.992;2022-12-20T08:51:25;10.70;99.90
21592;DHT22;10958;50.892;3.992;2022-12-20T08:54:11;10.60;99.90
21592;DHT22;10958;50.892;3.992;2022-12-20T08:59:42;10.60;99.90
21592;DHT22;10958;50.892;3.992;2022-12-20T09:02:14;10.60;99.90
21592;DHT22;10958;50.892;3.992;2022-12-20T09:11:59;10.60;99.90
21592;DHT22;10958;50.892;3.992;2022-12-20T09:14:28;10.50;99.90
21592;DHT22;10958;50.892;3.992;2022-12-20T09:17:23;10.50;99.90
21592;DHT22;10958;50.892;3.992;2022-12-20T09:19:49;10.50;99.90
21592;DHT22;10958;50.892;3.992;2022-12-20T09:22:22;10.50;99.90
21592;DHT22;10958;50.892;3.992;2022-12-20T09:24:54;10.60;99.90
21592;DHT22;10958;50.892;3.992;2022-12-20T09:27:19;10.60;99.90
21592;DHT22;10958;50.892;3.992;2022-12-20T09:29:45;10.60;99.90
21592;DHT22;10958;50.892;3.992;2022-12-20T09:32:26;10.60;99.90
21592;DHT22;10958;50.892;3.992;2022-12-20T09:34:52;10.60;99.90
21592;DHT22;10958;50.892;3.992;2022-12-20T09:37:50;10.70;99.90
21592;DHT22;10958;50.892;3.992;2022-12-20T09:40:18;10.80;99.90
21592;DHT22;10958;50.892;3.992;2022-12-20T09:42:46;10.70;99.90
21592;DHT22;10958;50.892;3.992;2022-12-20T09:45:21;10.80;99.90
21592;DHT22;10958;50.892;3.992;2022-12-20T09:47:47;10.80;99.90
21592;DHT22;10958;50.892;3.992;2022-12-20T09:50:17;10.80;99.90
21592;DHT22;10958;50.892;3.992;2022-12-20T09:52:53;10.80;99.90
21592;DHT22;10958;50.892;3.992;2022-12-20T10:00:47;10.90;99.90
21592;DHT22;10958;50.892;3.992;2022-12-20T10:03:25;10.90;99.90
21592;DHT22;10958;50.892;3.992;2022-12-20T10:05:54;10.90;99.90
21592;DHT22;10958;50.892;3.992;2022-12-20T10:08:36;11.00;99.90
21592;DHT22;10958;50.892;3.992;2022-12-20T10:17:13;11.00;99.90
21592;DHT22;10958;50.892;3.992;2022-12-20T10:22:34;11.10;99.90
21592;DHT22;10958;50.892;3.992;2022-12-20T10:25:15;11.10;99.90
21592;DHT22;10958;50.892;3.992;2022-12-20T10:27:44;11.10;99.90
21592;DHT22;10958;50.892;3.992;2022-12-20T10:30:19;11.10;99.90
21592;DHT22;10958;50.892;3.992;2022-12-20T10:32:48;11.10;99.90
21592;DHT22;10958;50.892;3.992;2022-12-20T10:40:32;11.10;99.90
21592;DHT22;10958;50.892;3.992;2022-12-20T10:43:00;11.20;99.90
21592;DHT22;10958;50.892;3.992;2022-12-20T10:46:04;11.20;99.90
21592;DHT22;10958;50.892;3.992;2022-12-20T10:48:38;11.10;99.90
21592;DHT22;10958;50.892;3.992;2022-12-20T10:54:01;11.10;99.90
21592;DHT22;10958;50.892;3.992;2022-12-20T10:56:31;11.10;99.90
21592;DHT22;10958;50.892;3.992;2022-12-20T10:59:03;11.20;99.90
21592;DHT22;10958;50.892;3.992;2022-12-20T11:06:43;11.20;99.90
21592;DHT22;10958;50.892;3.992;2022-12-20T11:12:01;11.10;99.90
21592;DHT22;10958;50.892;3.992;2022-12-20T11:14:28;11.20;99.90
21592;DHT22;10958;50.892;3.992;2022-12-20T11:16:55;11.10;99.90
21592;DHT22;10958;50.892;3.992;2022-12-20T11:22:24;11.10;99.90
21592;DHT22;10958;50.892;3.992;2022-12-20T11:25:06;11.20;99.90
21592;DHT22;10958;50.892;3.992;2022-12-20T11:28:11;11.20;99.90
21592;DHT22;10958;50.892;3.992;2022-12-20T11:34:09;11.10;99.90
21592;DHT22;10958;50.892;3.992;2022-12-20T11:39:48;11.20;99.90
21592;DHT22;10958;50.892;3.992;2022-12-20T11:44:53;11.10;99.90
21592;DHT22;10958;50.892;3.992;2022-12-20T11:48:40;11.10;99.90
21592;DHT22;10958;50.892;3.992;2022-12-20T11:55:58;11.00;99.90
21592;DHT22;10958;50.892;3.992;2022-12-20T11:58:26;11.00;99.90
21592;DHT22;10958;50.892;3.992;2022-12-20T12:01:06;11.10;99.90
21592;DHT22;10958;50.892;3.992;2022-12-20T12:03:37;11.10;99.90
21592;DHT22;10958;50.892;3.992;2022-12-20T12:06:19;11.10;99.90
21592;DHT22;10958;50.892;3.992;2022-12-20T12:11:23;11.10;99.90
21592;DHT22;10958;50.892;3.992;2022-12-20T12:13:52;11.10;99.90
21592;DHT22;10958;50.892;3.992;2022-12-20T12:16:27;11.10;99.90
21592;DHT22;10958;50.892;3.992;2022-12-20T12:18:57;11.10;99.90
21592;DHT22;10958;50.892;3.992;2022-12-20T12:26:34;11.00;99.90
21592;DHT22;10958;50.892;3.992;2022-12-20T12:29:05;11.00;99.90
21592;DHT22;10958;50.892;3.992;2022-12-20T12:31:44;11.00;99.90
21592;DHT22;10958;50.892;3.992;2022-12-20T12:45:09;10.90;99.90
21592;DHT22;10958;50.892;3.992;2022-12-20T12:47:39;10.90;99.90
21592;DHT22;10958;50.892;3.992;2022-12-20T12:50:23;10.90;99.90
21592;DHT22;10958;50.892;3.992;2022-12-20T12:52:52;10.90;99.90
21592;DHT22;10958;50.892;3.992;2022-12-20T12:55:47;10.90;99.90
21592;DHT22;10958;50.892;3.992;2022-12-20T13:01:08;10.80;99.90
21592;DHT22;10958;50.892;3.992;2022-12-20T13:03:44;10.80;99.90
21592;DHT22;10958;50.892;3.992;2022-12-20T13:11:32;10.90;99.90
21592;DHT22;10958;50.892;3.992;2022-12-20T13:19:34;10.90;99.90
21592;DHT22;10958;50.892;3.992;2022-12-20T13:25:02;10.90;99.90
21592;DHT22;10958;50.892;3.992;2022-12-20T13:27:35;10.90;99.90
21592;DHT22;10958;50.892;3.992;2022-12-20T13:37:57;11.00;99.90
21592;DHT22;10958;50.892;3.992;2022-12-20T13:40:44;11.00;99.90
21592;DHT22;10958;50.892;3.992;2022-12-20T13:45:48;11.10;99.90
21592;DHT22;10958;50.892;3.992;2022-12-20T13:48:20;11.10;99.90
21592;DHT22;10958;50.892;3.992;2022-12-20T13:50:51;11.10;99.90
21592;DHT22;10958;50.892;3.992;2022-12-20T13:53:22;11.00;99.90
21592;DHT22;10958;50.892;3.992;2022-12-20T13:55:49;11.00;99.90
21592;DHT22;10958;50.892;3.992;2022-12-20T13:58:17;10.90;99.90
21592;DHT22;10958;50.892;3.992;2022-12-20T14:00:45;10.90;99.90
21592;DHT22;10958;50.892;3.992;2022-12-20T14:03:23;11.00;99.90
21592;DHT22;10958;50.892;3.992;2022-12-20T14:05:55;11.00;99.90
21592;DHT22;10958;50.892;3.992;2022-12-20T14:08:26;11.10;99.90
21592;DHT22;10958;50.892;3.992;2022-12-20T14:11:12;11.00;99.90
21592;DHT22;10958;50.892;3.992;2022-12-20T14:13:58;11.10;99.90
21592;DHT22;10958;50.892;3.992;2022-12-20T14:16:27;11.10;99.90
21592;DHT22;10958;50.892;3.992;2022-12-20T14:21:23;11.00;99.90
21592;DHT22;10958;50.892;3.992;2022-12-20T14:23:51;11.10;99.90
21592;DHT22;10958;50.892;3.992;2022-12-20T14:26:27;11.10;99.90
21592;DHT22;10958;50.892;3.992;2022-12-20T14:28:55;11.20;99.90
21592;DHT22;10958;50.892;3.992;2022-12-20T14:33:51;11.00;99.90
21592;DHT22;10958;50.892;3.992;2022-12-20T14:36:25;11.10;99.90
21592;DHT22;10958;50.892;3.992;2022-12-20T14:38:51;11.10;99.90
21592;DHT22;10958;50.892;3.992;2022-12-20T14:41:39;11.00;99.90
21592;DHT22;10958;50.892;3.992;2022-12-20T14:46:34;11.00;99.90
21592;DHT22;10958;50.892;3.992;2022-12-20T14:49:30;11.10;99.90
21592;DHT22;10958;50.892;3.992;2022-12-20T14:52:14;11.00;99.90
21592;DHT22;10958;50.892;3.992;2022-12-20T14:54:55;11.00;99.90
21592;DHT22;10958;50.892;3.992;2022-12-20T14:57:46;11.00;99.90
21592;DHT22;10958;50.892;3.992;2022-12-20T15:00:30;10.90;99.90
21592;DHT22;10958;50.892;3.992;2022-12-20T15:03:16;10.90;99.90
21592;DHT22;10958;50.892;3.992;2022-12-20T15:05:49;10.90;99.90
21592;DHT22;10958;50.892;3.992;2022-12-20T15:08:31;11.00;99.90
21592;DHT22;10958;50.892;3.992;2022-12-20T15:11:01;11.00;99.90
21592;DHT22;10958;50.892;3.992;2022-12-20T15:13:31;11.00;99.90
21592;DHT22;10958;50.892;3.992;2022-12-20T15:16:00;11.00;99.90
21592;DHT22;10958;50.892;3.992;2022-12-20T15:18:26;11.00;99.90
21592;DHT22;10958;50.892;3.992;2022-12-20T15:21:16;11.00;99.90
21592;DHT22;10958;50.892;3.992;2022-12-20T15:23:47;10.90;99.90
21592;DHT22;10958;50.892;3.992;2022-12-20T15:26:18;10.90;99.90
21592;DHT22;10958;50.892;3.992;2022-12-20T15:28:44;10.90;99.90
21592;DHT22;10958;50.892;3.992;2022-12-20T15:31:12;10.90;99.90
21592;DHT22;10958;50.892;3.992;2022-12-20T15:33:40;11.00;99.90
21592;DHT22;10958;50.892;3.992;2022-12-20T15:36:06;11.10;99.90
21592;DHT22;10958;50.892;3.992;2022-12-20T15:38:34;11.10;99.90
21592;DHT22;10958;50.892;3.992;2022-12-20T15:41:03;11.10;99.90
21592;DHT22;10958;50.892;3.992;2022-12-20T15:43:35;11.10;99.90
21592;DHT22;10958;50.892;3.992;2022-12-20T15:46:02;11.00;99.90
21592;DHT22;10958;50.892;3.992;2022-12-20T15:48:28;11.10;99.90
21592;DHT22;10958;50.892;3.992;2022-12-20T15:50:56;11.00;99.90
21592;DHT22;10958;50.892;3.992;2022-12-20T15:53:29;11.10;99.90
21592;DHT22;10958;50.892;3.992;2022-12-20T15:55:56;11.10;99.90
21592;DHT22;10958;50.892;3.992;2022-12-20T15:58:28;11.10;99.90
21592;DHT22;10958;50.892;3.992;2022-12-20T16:00:59;11.10;99.90
21592;DHT22;10958;50.892;3.992;2022-12-20T16:03:29;11.10;99.90
21592;DHT22;10958;50.892;3.992;2022-12-20T16:05:57;11.20;99.90
21592;DHT22;10958;50.892;3.992;2022-12-20T16:08:22;11.20;99.90
21592;DHT22;10958;50.892;3.992;2022-12-20T16:10:50;11.20;99.90
21592;DHT22;10958;50.892;3.992;2022-12-20T16:13:23;11.20;99.90
21592;DHT22;10958;50.892;3.992;2022-12-20T16:15:50;11.20;99.90
21592;DHT22;10958;50.892;3.992;2022-12-20T16:18:15;11.20;99.90
21592;DHT22;10958;50.892;3.992;2022-12-20T16:20:41;11.20;99.90
21592;DHT22;10958;50.892;3.992;2022-12-20T16:28:44;11.10;99.90
21592;DHT22;10958;50.892;3.992;2022-12-20T16:38:57;11.00;99.90
21592;DHT22;10958;50.892;3.992;2022-12-20T16:41:27;11.00;99.90
21592;DHT22;10958;50.892;3.992;2022-12-20T16:44:25;11.10;99.90
21592;DHT22;10958;50.892;3.992;2022-12-20T16:47:08;11.10;99.90
21592;DHT22;10958;50.892;3.992;2022-12-20T16:49:52;11.10;99.90
21592;DHT22;10958;50.892;3.992;2022-12-20T16:52:22;11.10;99.90
21592;DHT22;10958;50.892;3.992;2022-12-20T16:54:54;11.10;99.90
21592;DHT22;10958;50.892;3.992;2022-12-20T16:57:20;11.10;99.90
21592;DHT22;10958;50.892;3.992;2022-12-20T16:59:55;11.10;99.90
21592;DHT22;10958;50.892;3.992;2022-12-20T17:02:29;11.00;99.90
21592;DHT22;10958;50.892;3.992;2022-12-20T17:04:57;11.00;99.90
21592;DHT22;10958;50.892;3.992;2022-12-20T17:07:32;11.00;99.90
21592;DHT22;10958;50.892;3.992;2022-12-20T17:10:10;11.00;99.90
21592;DHT22;10958;50.892;3.992;2022-12-20T17:15:39;11.10;99.90
21592;DHT22;10958;50.892;3.992;2022-12-20T17:18:07;11.00;99.90
21592;DHT22;10958;50.892;3.992;2022-12-20T17:20:43;11.00;99.90
21592;DHT22;10958;50.892;3.992;2022-12-20T17:23:12;11.00;99.90
21592;DHT22;10958;50.892;3.992;2022-12-20T17:25:50;11.00;99.90
21592;DHT22;10958;50.892;3.992;2022-12-20T17:28:32;11.10;99.90
21592;DHT22;10958;50.892;3.992;2022-12-20T17:30:58;11.10;99.90
21592;DHT22;10958;50.892;3.992;2022-12-20T17:33:38;11.10;99.90
21592;DHT22;10958;50.892;3.992;2022-12-20T17:36:05;11.00;99.90
21592;DHT22;10958;50.892;3.992;2022-12-20T17:38:30;10.90;99.90
21592;DHT22;10958;50.892;3.992;2022-12-20T17:40:57;10.90;99.90
21592;DHT22;10958;50.892;3.992;2022-12-20T17:43:22;10.90;99.90
21592;DHT22;10958;50.892;3.992;2022-12-20T17:45:51;10.90;99.90
21592;DHT22;10958;50.892;3.992;2022-12-20T17:48:16;11.00;99.90
21592;DHT22;10958;50.892;3.992;2022-12-20T17:50:42;10.90;99.90
21592;DHT22;10958;50.892;3.992;2022-12-20T17:53:08;10.90;99.90
21592;DHT22;10958;50.892;3.992;2022-12-20T17:55:35;10.90;99.90
21592;DHT22;10958;50.892;3.992;2022-12-20T17:58:03;11.00;99.90
21592;DHT22;10958;50.892;3.992;2022-12-20T18:00:30;11.00;99.90
21592;DHT22;10958;50.892;3.992;2022-12-20T18:02:57;11.00;99.90
21592;DHT22;10958;50.892;3.992;2022-12-20T18:05:23;11.00;99.90
21592;DHT22;10958;50.892;3.992;2022-12-20T18:07:54;11.00;99.90
21592;DHT22;10958;50.892;3.992;2022-12-20T18:10:24;11.10;99.90
21592;DHT22;10958;50.892;3.992;2022-12-20T18:12:51;11.20;99.90
21592;DHT22;10958;50.892;3.992;2022-12-20T18:15:18;11.20;99.90
21592;DHT22;10958;50.892;3.992;2022-12-20T18:17:44;11.10;99.90
21592;DHT22;10958;50.892;3.992;2022-12-20T18:20:10;11.20;99.90
21592;DHT22;10958;50.892;3.992;2022-12-20T18:22:36;11.20;99.90
21592;DHT22;10958;50.892;3.992;2022-12-20T18:25:03;11.10;99.90
21592;DHT22;10958;50.892;3.992;2022-12-20T18:27:36;11.10;99.90
21592;DHT22;10958;50.892;3.992;2022-12-20T18:30:03;11.20;99.90
21592;DHT22;10958;50.892;3.992;2022-12-20T18:32:29;11.20;99.90
21592;DHT22;10958;50.892;3.992;2022-12-20T18:34:55;11.20;99.90
21592;DHT22;10958;50.892;3.992;2022-12-20T18:37:24;11.20;99.90
21592;DHT22;10958;50.892;3.992;2022-12-20T18:39:50;11.20;99.90
21592;DHT22;10958;50.892;3.992;2022-12-20T18:42:16;11.10;99.90